createdAt,value
2018-09-15T00:01:16.974Z,5.73
2018-09-15T00:06:19.131Z,6.13
2018-09-15T00:11:21.273Z,6.77
2018-09-15T00:16:23.434Z,4.70
2018-09-15T00:21:25.572Z,5.10
2018-09-15T00:26:27.722Z,6.70
2018-09-15T00:31:29.843Z,5.30
2018-09-15T00:36:31.986Z,5.20
2018-09-15T00:41:34.156Z,6.47
2018-09-15T00:51:51.444Z,5.40
2018-09-15T00:56:53.607Z,6.30
2018-09-15T01:01:55.735Z,5.30
2018-09-15T01:06:57.893Z,6.27
2018-09-15T01:12:00.039Z,5.00
2018-09-15T01:17:02.166Z,5.67
2018-09-15T01:22:04.323Z,4.60
2018-09-15T01:27:06.493Z,5.20
2018-09-15T01:32:08.633Z,5.23
2018-09-15T01:37:10.763Z,5.20
2018-09-15T01:42:12.915Z,4.87
2018-09-15T01:47:15.030Z,5.30
2018-09-15T01:52:17.158Z,5.50
2018-09-15T01:57:19.302Z,3.97
2018-09-15T02:02:21.456Z,5.00
2018-09-15T02:07:23.609Z,4.92
2018-09-15T02:12:25.746Z,5.13
2018-09-15T02:17:27.870Z,4.40
2018-09-15T02:22:30.023Z,4.47
2018-09-15T02:27:32.178Z,4.40
2018-09-15T02:32:34.355Z,4.67
2018-09-15T02:37:36.496Z,5.03
2018-09-15T02:42:38.617Z,4.57
2018-09-15T02:47:41.128Z,4.53
2018-09-15T02:52:43.283Z,4.50
2018-09-15T02:57:45.432Z,4.40
2018-09-15T03:02:47.538Z,4.67
2018-09-15T03:07:49.674Z,4.63
2018-09-15T03:12:51.937Z,4.20
2018-09-15T03:17:54.078Z,4.50
2018-09-15T03:22:56.238Z,4.57
2018-09-15T03:27:58.371Z,4.50
2018-09-15T03:33:00.470Z,4.03
2018-09-15T03:38:02.634Z,4.83
2018-09-15T03:43:04.942Z,4.63
2018-09-15T03:48:07.107Z,4.50
2018-09-15T03:53:09.221Z,5.10
2018-09-15T03:58:11.386Z,4.87
2018-09-15T04:03:13.533Z,5.33
2018-09-15T04:08:15.646Z,5.27
2018-09-15T04:13:17.764Z,6.73
2018-09-15T04:18:19.878Z,6.30
2018-09-15T04:23:22.008Z,5.00
2018-09-15T04:28:24.206Z,6.77
2018-09-15T04:33:26.302Z,5.40
2018-09-15T04:38:28.442Z,5.80
2018-09-15T04:43:30.549Z,5.10
2018-09-15T04:48:32.650Z,5.43
2018-09-15T04:53:34.795Z,6.30
2018-09-15T04:58:37.011Z,5.80
2018-09-15T05:03:39.155Z,5.67
2018-09-15T05:08:41.288Z,5.83
2018-09-15T05:13:43.430Z,6.07
2018-09-15T05:18:45.583Z,5.50
2018-09-15T05:23:47.706Z,6.40
2018-09-15T05:28:49.866Z,5.40
2018-09-15T05:33:52.056Z,5.83
2018-09-15T05:38:54.212Z,6.07
2018-09-15T05:43:56.309Z,5.97
2018-09-15T05:48:58.415Z,6.03
2018-09-15T05:54:00.661Z,5.80
2018-09-15T05:59:02.877Z,6.50
2018-09-15T06:04:05.090Z,6.60
2018-09-15T06:09:08.256Z,7.17
2018-09-15T06:14:10.431Z,6.20
2018-09-15T06:19:12.561Z,5.60
2018-09-15T06:24:14.741Z,5.70
2018-09-15T06:29:17.446Z,5.43
2018-09-15T06:34:19.595Z,5.13
2018-09-15T06:39:21.817Z,5.47
2018-09-15T06:44:23.925Z,10.97
2018-09-15T06:49:26.051Z,6.43
2018-09-15T06:54:28.219Z,6.13
2018-09-15T06:59:30.418Z,6.30
2018-09-15T07:04:32.569Z,6.43
2018-09-15T07:09:34.677Z,4.90
2018-09-15T07:14:36.822Z,6.40
2018-09-15T07:19:38.981Z,5.33
2018-09-15T07:24:41.121Z,6.70
2018-09-15T07:29:43.272Z,7.10
2018-09-15T07:34:45.460Z,5.87
2018-09-15T07:39:47.582Z,6.37
2018-09-15T07:44:49.937Z,6.00
2018-09-15T07:49:52.128Z,7.77
2018-09-15T07:54:54.306Z,6.30
2018-09-15T07:59:56.542Z,6.47
2018-09-15T08:04:58.765Z,5.70
2018-09-15T08:10:00.952Z,5.60
2018-09-15T08:15:03.149Z,4.30
2018-09-15T08:20:06.264Z,4.63
2018-09-15T08:25:08.795Z,4.73
2018-09-15T08:30:10.964Z,3.70
2018-09-15T08:35:13.116Z,3.43
2018-09-15T08:40:15.338Z,3.43
2018-09-15T08:45:18.036Z,2.70
2018-09-15T08:50:20.206Z,2.70
2018-09-15T08:55:22.365Z,2.23
2018-09-15T09:00:24.619Z,2.50
2018-09-15T09:05:26.752Z,1.73
2018-09-15T09:10:28.892Z,2.10
2018-09-15T09:15:31.043Z,2.50
2018-09-15T09:20:33.167Z,1.63
2018-09-15T09:25:35.314Z,1.67
2018-09-15T09:30:37.460Z,1.87
2018-09-15T09:35:39.673Z,1.60
2018-09-15T09:40:41.849Z,1.70
2018-09-15T09:45:44.023Z,2.30
2018-09-15T09:50:46.211Z,1.60
2018-09-15T09:55:48.558Z,1.43
2018-09-15T10:00:56.420Z,1.17
2018-09-15T10:05:58.698Z,1.90
2018-09-15T10:11:00.854Z,1.50
2018-09-15T10:16:03.090Z,1.83
2018-09-15T10:21:05.206Z,1.10
2018-09-15T10:26:07.502Z,1.20
2018-09-15T10:31:09.704Z,1.63
2018-09-15T10:36:12.272Z,1.07
2018-09-15T10:41:14.591Z,1.43
2018-09-15T10:46:16.813Z,1.47
2018-09-15T10:51:18.959Z,1.40
2018-09-15T10:56:21.183Z,1.57
2018-09-15T11:01:23.361Z,1.20
2018-09-15T11:06:25.589Z,2.10
2018-09-15T11:11:27.791Z,1.97
2018-09-15T11:16:30.539Z,2.50
2018-09-15T11:21:32.741Z,1.50
2018-09-15T11:26:34.928Z,1.50
2018-09-15T11:31:37.559Z,2.10
2018-09-15T11:36:39.777Z,1.30
2018-09-15T11:41:41.957Z,1.20
2018-09-15T11:46:44.123Z,1.70
2018-09-15T11:51:46.319Z,1.70
2018-09-15T11:56:48.502Z,1.50
2018-09-15T12:01:50.781Z,1.57
2018-09-15T12:06:52.972Z,1.20
2018-09-15T12:11:55.187Z,1.67
2018-09-15T12:16:57.388Z,1.60
2018-09-15T12:21:59.548Z,1.20
2018-09-15T12:27:01.712Z,1.17
2018-09-15T12:32:03.930Z,1.13
2018-09-15T12:37:06.161Z,1.50
2018-09-15T12:42:08.364Z,1.13
2018-09-15T12:47:10.526Z,1.13
2018-09-15T12:52:12.751Z,1.10
2018-09-15T12:57:14.927Z,1.00
2018-09-15T13:02:17.126Z,1.33
2018-09-15T13:07:19.311Z,1.37
2018-09-15T13:12:21.478Z,0.80
2018-09-15T13:17:23.762Z,1.10
2018-09-15T13:22:25.939Z,1.27
2018-09-15T13:27:28.153Z,1.10
2018-09-15T13:32:31.019Z,1.37
2018-09-15T13:37:33.139Z,1.17
2018-09-15T13:42:35.272Z,1.90
2018-09-15T13:47:37.422Z,1.10
2018-09-15T13:52:39.607Z,1.40
2018-09-15T13:57:41.793Z,1.67
2018-09-15T14:02:44.136Z,1.23
2018-09-15T14:07:46.320Z,1.20
2018-09-15T14:12:48.508Z,1.37
2018-09-15T14:17:50.686Z,1.10
2018-09-15T14:22:52.864Z,1.23
2018-09-15T14:27:55.054Z,1.00
2018-09-15T14:32:57.251Z,1.83
2018-09-15T14:37:59.435Z,1.40
2018-09-15T14:43:01.989Z,1.13
2018-09-15T14:48:04.618Z,1.40
2018-09-15T14:53:06.783Z,1.30
2018-09-15T14:58:08.976Z,1.70
2018-09-15T15:03:11.871Z,1.03
2018-09-15T15:08:14.068Z,1.73
2018-09-15T15:13:16.229Z,1.23
2018-09-15T15:18:18.396Z,1.30
2018-09-15T15:23:20.575Z,1.27
2018-09-15T15:28:22.730Z,1.20
2018-09-15T15:33:24.980Z,0.90
2018-09-15T15:38:27.158Z,1.17
2018-09-15T15:43:29.405Z,1.20
2018-09-15T15:48:31.596Z,2.37
2018-09-15T15:53:33.758Z,1.60
2018-09-15T15:58:36.041Z,1.90
2018-09-15T16:03:38.179Z,1.50
2018-09-15T16:08:40.363Z,1.40
2018-09-15T16:13:42.591Z,1.10
2018-09-15T16:18:44.798Z,1.20
2018-09-15T16:23:46.979Z,1.50
2018-09-15T16:28:49.411Z,1.67
2018-09-15T16:33:51.896Z,1.00
2018-09-15T16:38:54.094Z,1.30
2018-09-15T16:43:56.358Z,1.10
2018-09-15T16:48:58.511Z,1.33
2018-09-15T16:54:00.701Z,1.03
2018-09-15T16:59:02.905Z,1.50
2018-09-15T17:04:05.167Z,1.43
2018-09-15T17:09:08.785Z,1.30
2018-09-15T17:14:10.973Z,1.40
2018-09-15T17:19:13.179Z,1.47
2018-09-15T17:24:15.407Z,1.30
2018-09-15T17:29:17.578Z,1.20
2018-09-15T17:34:19.744Z,1.30
2018-09-15T17:39:21.952Z,1.30
2018-09-15T17:44:24.100Z,1.33
2018-09-15T17:49:26.275Z,1.00
2018-09-15T17:54:28.527Z,1.53
2018-09-15T17:59:30.782Z,1.43
2018-09-15T18:04:33.007Z,1.23
2018-09-15T18:09:35.264Z,1.50
2018-09-15T18:14:37.389Z,1.17
2018-09-15T18:19:39.585Z,1.00
2018-09-15T18:24:41.825Z,1.10
2018-09-15T18:29:43.984Z,1.40
2018-09-15T18:34:46.173Z,1.13
2018-09-15T18:39:48.491Z,1.30
2018-09-15T18:44:50.680Z,0.93
2018-09-15T18:49:52.879Z,1.03
2018-09-15T18:54:55.145Z,2.20
2018-09-15T18:59:57.383Z,2.63
2018-09-15T19:04:59.717Z,2.07
2018-09-15T19:10:01.979Z,1.60
2018-09-15T19:15:04.313Z,2.50
2018-09-15T19:20:07.524Z,2.10
2018-09-15T19:25:10.054Z,1.67
2018-09-15T19:30:12.387Z,1.95
2018-09-15T19:35:14.757Z,1.37
2018-09-15T19:40:17.113Z,2.00
2018-09-15T19:45:19.580Z,1.40
2018-09-15T19:50:21.915Z,1.30
2018-09-15T19:55:24.152Z,1.80
2018-09-15T20:00:26.402Z,1.67
2018-09-15T20:05:28.788Z,1.80
2018-09-15T20:10:31.064Z,1.30
2018-09-15T20:15:32.383Z,1.17
2018-09-15T20:20:33.688Z,1.60
2018-09-15T20:25:35.972Z,2.10
2018-09-15T20:30:38.569Z,1.83
2018-09-15T20:35:41.005Z,2.10
2018-09-15T20:40:43.187Z,2.00
2018-09-15T20:45:45.432Z,2.10
2018-09-15T20:50:47.653Z,2.30
2018-09-15T20:55:49.876Z,1.50
2018-09-15T21:00:52.112Z,1.80
2018-09-15T21:05:54.402Z,1.90
2018-09-15T21:10:56.567Z,2.27
2018-09-15T21:15:58.749Z,2.40
2018-09-15T21:21:00.990Z,2.17
2018-09-15T21:26:03.161Z,1.50
2018-09-15T21:31:05.589Z,2.00
2018-09-15T21:36:07.772Z,1.70
2018-09-15T21:41:09.958Z,1.70
2018-09-15T21:46:12.190Z,2.20
2018-09-15T21:51:14.462Z,2.20
2018-09-15T21:56:16.625Z,1.83
2018-09-15T22:01:18.825Z,1.43
2018-09-15T22:06:21.111Z,2.00
2018-09-15T22:11:23.343Z,2.30
2018-09-15T22:16:25.548Z,1.93
2018-09-15T22:21:27.757Z,2.67
2018-09-15T22:26:29.997Z,2.03
2018-09-15T22:31:32.154Z,2.73
2018-09-15T22:36:34.298Z,1.90
2018-09-15T22:41:37.175Z,2.07
2018-09-15T22:46:39.318Z,1.70
2018-09-15T22:51:41.503Z,2.23
2018-09-15T22:56:43.750Z,2.20
2018-09-15T23:01:45.894Z,1.50
2018-09-15T23:06:48.179Z,1.77
2018-09-15T23:11:50.349Z,1.63
2018-09-15T23:16:52.865Z,2.03
2018-09-15T23:21:55.099Z,2.43
2018-09-15T23:26:57.214Z,2.43
2018-09-15T23:31:59.346Z,1.67
2018-09-15T23:37:01.503Z,1.80
2018-09-15T23:42:03.680Z,1.90
2018-09-15T23:47:05.807Z,1.80
2018-09-15T23:52:08.182Z,1.97
2018-09-15T23:57:10.320Z,2.30
